Seabrook, NH (03874)

5:33 AM EDT on July 24, 2016 (GMT -0400)
Yankee Fisherman's Coop | | Change Station

Elev 40 ft 42.89 °N, 70.82 °W | Updated 9 seconds ago

Partly Cloudy
Partly Cloudy
63.5 °F
Feels Like 63.5 °F
N
4.0
Wind Variable Wind from NW
Gusts 6.0 mph

Today
High -- | Low -- °F
--% Chance of Precip.
Yesterday
High -- | Low -- °F
Precip. -- in
Pressure 29.89 in
Visibility 10.0 miles
Clouds Few 7000 ft
Dew Point 61 °F
Humidity 91%
Rainfall 0.00 in
Snow Depth Not available.
5:26 AM 8:12 PM
Waning Gibbous, 78% visible
METAR KPSM 240858Z 28004KT 10SM FEW070 17/15 A2988 RMK AO2A SLP120 T01700154 50009
Pressure 29.89 in
Visibility 10.0 miles
Clouds Few 7000 ft
Dew Point 61 °F
Humidity 91%
Rainfall 0.00 in
Snow Depth Not available.
5:26 AM 8:12 PM
Waning Gibbous, 78% visible
METAR KPSM 240858Z 28004KT 10SM FEW070 17/15 A2988 RMK AO2A SLP120 T01700154 50009

10-Day Weather Forecast

Almanac

Astronomy

Jul. 24, 2016 Rise Set
Actual Time
Civil Twilight
Nautical Twilight
Astronomical Twilight
Moon
Length of Visible Light
Length of Day
Tomorrow will be .
, % of the Moon is Illuminated

Today's Extremes

State Highs State Lows

Community

WunderPhotos

Upload Photos

1,927,042 photos uploaded!

WunderBlog® & News

Nearby

Air Quality

  Air Quality AQ Index Pollutant
Not available.

Snow Depth

Station Depth Elevation

Earthquake Activity

City Distance Mag. Time & Date
Minimum magnitude displayed is 2.5.

Coastal Water Temperatures

Place Temperature

Stations

Nearby Weather Stations

Station Location Temp. Windchill Dew Point Humidity Wind Precip. Elev Updated Type
                   

Watches & Warnings

There are currently no watches in effect.